Maryland METAR Reports


Distance/Direction noted is from Ellicott City, MD as the crow flies

KCBE - Cumberland - 118 miles WNW
Updated: Mon, 09/01/2014 2:07 PM
Clear
Clear
 Wind from W
Wind: W 6 mph
Temperature: 88°F
Heat Index: 95°F
Dew Point: 72°F
Humidity: 59%
Barometer: 30.05 inHg
Clouds: Clear
Visibility: 10 miles
2014/09/01 18:07 KCBE 011807Z AUTO 26005KT 10SM CLR 31/22 A3005 RMK AO1
KHGR - Hagerstown - 57 miles NW
Updated: Mon, 09/01/2014 1:53 PM
Mostly Cloudy
Mostly Cloudy
 Wind from W
Wind: W 8 mph
Temperature: 86°F
Heat Index: 91°F
Dew Point: 70°F
Humidity: 59%
Barometer: 30.00 inHg
Clouds: Mostly Cloudy
Visibility: 10 miles
Cloud Details: Few Clouds 3000 ft
Partly Cloudy 3800 ft
Mostly Cloudy 7000 ft
2014/09/01 17:53 KHGR 011753Z 26007KT 10SM FEW030 SCT038 BKN070 30/21 A3000 RMK AO2 SLP161 60000 T03000211 10300 20228 56013
 
KFDK - Frederick - 34 miles NW
Updated: Mon, 09/01/2014 1:55 PM
Mostly Cloudy
Mostly Cloudy
 Wind from SW
Wind: SW 6 mph
Temperature: 90°F
Heat Index: 97°F
Dew Point: 72°F
Humidity: 55%
Barometer: 30.01 inHg
Clouds: Mostly Cloudy
Visibility: 10 miles
Cloud Details: Mostly Cloudy 3900 ft
2014/09/01 17:55 KFDK 011755Z 23005KT 10SM BKN039 32/22 A3001
KGAI - Gaithersburg - 26 miles SW
Updated: Mon, 09/01/2014 2:15 PM
Mostly Cloudy
Mostly Cloudy
 Wind from WSW
Wind: WSW 5 mph
Temperature: 86°F
Heat Index: 92°F
Dew Point: 72°F
Humidity: 62%
Barometer: 30.03 inHg
Clouds: Mostly Cloudy
Visibility: 10 miles
Cloud Details: Partly Cloudy 5500 ft
Mostly Cloudy 7500 ft
2014/09/01 18:15 KGAI 011815Z AUTO 25004KT 10SM SCT055 BKN075 30/22 A3003 RMK AO1
 
KBWI - BWI Airport - 15 miles SE
Updated: Mon, 09/01/2014 1:54 PM
Mostly Cloudy
Mostly Cloudy
 Wind from W
Wind: W 5 mph
Temperature: 88°F
Heat Index: 95°F
Dew Point: 72°F
Humidity: 59%
Barometer: 29.97 inHg
Clouds: Mostly Cloudy
Visibility: 10 miles
Cloud Details: Partly Cloudy 3800 ft
Mostly Cloudy 7000 ft
2014/09/01 17:54 KBWI 011754Z 26004KT 10SM SCT038TCU BKN070 31/22 A2997 RMK AO2 SLP147 TCU E-SE T03110217 10317 20228 56014
KNAK - Annapolis - 32 miles SSE
Updated: Mon, 09/01/2014 1:54 PM
Mostly Cloudy
Mostly Cloudy
 Wind from SE
Wind: SE 9 mph
Temperature: 84°F
Heat Index: 92°F
Dew Point: 75°F
Humidity: 74%
Barometer: 29.98 inHg
Clouds: Mostly Cloudy
Visibility: 10 miles
Cloud Details: Partly Cloudy 6000 ft
Mostly Cloudy 7500 ft
2014/09/01 17:54 KNAK 011754Z AUTO 14008KT 10SM SCT060 BKN075 29/24 A2998 RMK AO2 SLP152 60000 T02890239 10289 20239 56014 $
 
KESN - Easton - 63 miles SE
Updated: Mon, 09/01/2014 1:45 PM
Partly Cloudy
Partly Cloudy
 Wind from SSW
Wind: SSW 12 mph
Temperature: 90°F
Heat Index: 101°F
Dew Point: 75°F
Humidity: 63%
Barometer: 30.02 inHg
Clouds: Partly Cloudy
Visibility: 10 miles
Cloud Details: Partly Cloudy 2000 ft
2014/09/01 17:45 KESN 011745Z 21010KT 10SM SCT020 32/24 A3002
KSBY - Salisbury - 112 miles SE
Updated: Mon, 09/01/2014 1:54 PM
Few Clouds
Few Clouds
 Wind from WSW
Wind: WSW 12 mph, Gust: 20 mph
Temperature: 91°F
Heat Index: 98°F
Dew Point: 72°F
Humidity: 52%
Barometer: 29.99 inHg
Clouds: Few Clouds
Visibility: 10 miles
Cloud Details: Few Clouds 3300 ft
2014/09/01 17:54 KSBY 011754Z 25010G17KT 10SM FEW033 33/22 A2999 RMK AO2 SLP157 T03280222 10339 20267 56014